createdAt,value
2023-03-27T00:01:22.336Z,0.90
2023-03-27T00:03:50.084Z,0.60
2023-03-27T00:06:17.368Z,1.00
2023-03-27T00:08:44.942Z,1.42
2023-03-27T00:11:12.032Z,1.08
2023-03-27T00:13:49.193Z,1.20
2023-03-27T00:16:18.579Z,1.75
2023-03-27T00:18:45.867Z,2.10
2023-03-27T00:21:13.312Z,6.50
2023-03-27T00:23:40.648Z,4.85
2023-03-27T00:26:07.869Z,6.13
2023-03-27T00:28:35.538Z,3.92
2023-03-27T00:31:02.785Z,5.80
2023-03-27T00:33:31.382Z,5.67
2023-03-27T00:35:58.506Z,3.80
2023-03-27T00:38:25.810Z,3.40
2023-03-27T00:40:55.474Z,1.50
2023-03-27T00:43:27.646Z,0.90
2023-03-27T00:46:01.218Z,0.90
2023-03-27T00:48:28.422Z,1.67
2023-03-27T00:50:56.491Z,1.80
2023-03-27T00:53:25.208Z,1.10
2023-03-27T00:55:53.075Z,1.80
2023-03-27T00:58:21.181Z,1.60
2023-03-27T01:00:49.819Z,1.23
2023-03-27T01:03:16.899Z,1.30
2023-03-27T01:05:44.051Z,1.17
2023-03-27T01:08:12.453Z,1.00
2023-03-27T01:10:42.547Z,0.93
2023-03-27T01:13:12.508Z,1.00
2023-03-27T01:15:45.277Z,1.10
2023-03-27T01:18:15.726Z,1.35
2023-03-27T01:21:02.249Z,1.05
2023-03-27T01:24:00.756Z,0.88
2023-03-27T01:26:43.085Z,1.00
2023-03-27T01:29:19.002Z,1.15
2023-03-27T01:31:46.137Z,0.98
2023-03-27T01:34:28.282Z,1.10
2023-03-27T01:37:02.846Z,1.23
2023-03-27T01:39:48.856Z,1.17
2023-03-27T01:42:20.984Z,1.00
2023-03-27T01:44:48.080Z,1.02
2023-03-27T01:47:21.183Z,1.40
2023-03-27T01:49:53.314Z,0.95
2023-03-27T01:52:21.727Z,1.20
2023-03-27T01:54:55.719Z,1.05
2023-03-27T01:57:28.030Z,1.00
2023-03-27T02:00:19.407Z,1.10
2023-03-27T02:02:48.546Z,1.17
2023-03-27T02:05:27.609Z,1.15
2023-03-27T02:07:56.842Z,1.10
2023-03-27T02:10:25.897Z,1.67
2023-03-27T02:13:00.907Z,1.10
2023-03-27T02:15:30.438Z,0.95
2023-03-27T02:18:05.655Z,1.00
2023-03-27T02:20:33.419Z,1.50
2023-03-27T02:23:00.707Z,1.08
2023-03-27T02:25:28.175Z,1.00
2023-03-27T02:28:05.195Z,1.10
2023-03-27T02:30:37.246Z,1.10
2023-03-27T02:33:08.911Z,0.90
2023-03-27T02:35:48.398Z,0.95
2023-03-27T02:38:20.418Z,1.13
2023-03-27T02:40:49.609Z,1.13
2023-03-27T02:43:17.936Z,0.77
2023-03-27T02:45:52.995Z,1.20
2023-03-27T02:48:40.947Z,0.88
2023-03-27T02:51:14.081Z,1.10
2023-03-27T02:53:51.313Z,1.00
2023-03-27T02:56:18.557Z,1.10
2023-03-27T02:58:45.685Z,1.50
2023-03-27T03:01:16.489Z,1.17
2023-03-27T03:03:45.410Z,1.03
2023-03-27T03:06:14.189Z,1.20
2023-03-27T03:08:41.271Z,1.20
2023-03-27T03:11:10.077Z,1.23
2023-03-27T03:13:37.271Z,1.40
2023-03-27T03:16:04.544Z,1.55
2023-03-27T03:18:31.963Z,1.02
2023-03-27T03:20:59.799Z,1.00
2023-03-27T03:23:27.107Z,1.30
2023-03-27T03:25:56.772Z,1.55
2023-03-27T03:28:27.522Z,1.05
2023-03-27T03:30:54.746Z,1.20
2023-03-27T03:33:22.019Z,1.17
2023-03-27T03:35:49.684Z,1.10
2023-03-27T03:38:25.009Z,1.47
2023-03-27T03:40:53.071Z,1.25
2023-03-27T03:43:21.001Z,1.40
2023-03-27T03:45:48.067Z,1.17
2023-03-27T03:48:15.415Z,1.13
2023-03-27T03:50:42.938Z,1.40
2023-03-27T03:53:10.058Z,0.93
2023-03-27T03:55:37.134Z,1.00
2023-03-27T03:58:04.381Z,1.10
2023-03-27T04:00:37.992Z,1.00
2023-03-27T04:03:08.724Z,1.05
2023-03-27T04:05:36.610Z,1.13
2023-03-27T04:08:06.987Z,0.90
2023-03-27T04:10:34.693Z,0.80
2023-03-27T04:13:01.805Z,0.70
2023-03-27T04:15:28.867Z,1.05
2023-03-27T04:17:57.667Z,1.13
2023-03-27T04:20:28.039Z,0.90
2023-03-27T04:22:55.203Z,0.90
2023-03-27T04:25:23.272Z,1.15
2023-03-27T04:27:53.513Z,1.60
2023-03-27T04:30:23.720Z,1.00
2023-03-27T04:32:51.374Z,1.35
2023-03-27T04:35:18.895Z,1.23
2023-03-27T04:37:46.153Z,1.27
2023-03-27T04:40:14.109Z,1.25
2023-03-27T04:42:42.491Z,1.30
2023-03-27T04:45:10.857Z,1.20
2023-03-27T04:47:38.002Z,1.60
2023-03-27T04:50:05.564Z,1.20
2023-03-27T04:52:33.471Z,1.17
2023-03-27T04:55:01.575Z,1.23
2023-03-27T04:57:31.950Z,1.10
2023-03-27T04:59:59.632Z,1.40
2023-03-27T05:02:26.910Z,1.15
2023-03-27T05:05:02.136Z,1.02
2023-03-27T05:07:30.419Z,1.50
2023-03-27T05:09:57.694Z,0.93
2023-03-27T05:12:30.803Z,1.00
2023-03-27T05:14:57.897Z,1.10
2023-03-27T05:17:25.647Z,1.00
2023-03-27T05:19:52.911Z,1.33
2023-03-27T05:22:29.922Z,0.98
2023-03-27T05:24:58.685Z,0.93
2023-03-27T05:27:26.033Z,0.90
2023-03-27T05:29:53.139Z,1.08
2023-03-27T05:32:20.188Z,1.00
2023-03-27T05:34:50.655Z,0.77
2023-03-27T05:37:18.042Z,0.73
2023-03-27T05:39:49.776Z,1.05
2023-03-27T05:42:16.893Z,0.90
2023-03-27T05:44:44.025Z,1.55
2023-03-27T05:47:11.607Z,0.73
2023-03-27T05:49:39.548Z,0.90
2023-03-27T05:52:06.729Z,0.80
2023-03-27T05:54:33.778Z,0.88
2023-03-27T05:57:01.194Z,1.23
2023-03-27T05:59:28.424Z,0.93
2023-03-27T06:01:55.532Z,0.65
2023-03-27T06:04:22.996Z,0.98
2023-03-27T06:06:50.317Z,1.20
2023-03-27T06:09:17.425Z,0.75
2023-03-27T06:11:44.793Z,0.80
2023-03-27T06:14:11.840Z,0.70
2023-03-27T06:16:39.982Z,0.57
2023-03-27T06:19:07.390Z,0.70
2023-03-27T06:21:34.469Z,0.70
2023-03-27T06:24:01.748Z,0.60
2023-03-27T06:26:28.955Z,0.55
2023-03-27T06:28:56.188Z,0.60
2023-03-27T06:31:23.363Z,0.50
2023-03-27T06:33:50.445Z,0.85
2023-03-27T06:36:18.055Z,0.50
2023-03-27T06:38:45.596Z,0.90
2023-03-27T06:41:13.381Z,0.60
2023-03-27T06:43:40.447Z,0.50
2023-03-27T06:46:07.625Z,0.50
2023-03-27T06:48:34.792Z,0.52
2023-03-27T06:51:01.968Z,0.70
2023-03-27T06:53:31.157Z,0.70
2023-03-27T06:56:01.600Z,0.67
2023-03-27T06:58:28.846Z,0.70
2023-03-27T07:00:55.930Z,0.68
2023-03-27T07:03:23.096Z,0.57
2023-03-27T07:05:50.324Z,0.55
2023-03-27T07:08:24.044Z,0.60
2023-03-27T07:11:03.792Z,0.68
2023-03-27T07:13:38.294Z,0.70
2023-03-27T07:16:05.853Z,0.60
2023-03-27T07:18:33.057Z,0.40
2023-03-27T07:21:00.632Z,0.50
2023-03-27T07:23:27.947Z,0.60
2023-03-27T07:25:58.798Z,0.70
2023-03-27T07:28:26.195Z,0.50
2023-03-27T07:30:53.355Z,0.55
2023-03-27T07:33:20.570Z,0.52
2023-03-27T07:35:48.439Z,0.40
2023-03-27T07:38:16.523Z,0.40
2023-03-27T07:40:44.096Z,0.45
2023-03-27T07:43:11.267Z,0.53
2023-03-27T07:45:38.393Z,0.40
2023-03-27T07:48:13.993Z,0.60
2023-03-27T07:50:41.121Z,0.47
2023-03-27T07:53:08.261Z,0.40
2023-03-27T07:55:37.770Z,0.60
2023-03-27T07:58:06.856Z,0.50
2023-03-27T08:00:35.818Z,0.40
2023-03-27T08:03:10.099Z,0.40
2023-03-27T08:05:38.259Z,0.40
2023-03-27T08:08:05.353Z,0.40
2023-03-27T08:10:32.531Z,0.40
2023-03-27T08:12:59.635Z,0.43
2023-03-27T08:15:26.743Z,0.50
2023-03-27T08:17:55.240Z,0.40
2023-03-27T08:20:23.518Z,0.40
2023-03-27T08:22:54.041Z,0.45
2023-03-27T08:25:22.576Z,0.60
2023-03-27T08:27:49.996Z,0.60
2023-03-27T08:30:17.447Z,0.40
2023-03-27T08:32:44.881Z,1.15
2023-03-27T08:35:12.211Z,0.40
2023-03-27T08:37:39.608Z,0.40
2023-03-27T08:40:13.166Z,0.55
2023-03-27T08:42:41.129Z,0.65
2023-03-27T08:45:19.162Z,0.40
2023-03-27T08:47:48.127Z,0.40
2023-03-27T08:50:34.137Z,0.90
2023-03-27T08:53:01.315Z,0.50
2023-03-27T08:55:34.397Z,0.50
2023-03-27T08:58:01.506Z,0.70
2023-03-27T09:00:31.761Z,0.40
2023-03-27T09:03:16.458Z,0.30
2023-03-27T09:05:45.293Z,0.47
2023-03-27T09:08:25.684Z,0.30
2023-03-27T09:10:55.289Z,0.47
2023-03-27T09:13:33.728Z,0.60
2023-03-27T09:16:04.988Z,0.50
2023-03-27T09:18:34.000Z,0.30
2023-03-27T09:21:05.741Z,0.50
2023-03-27T09:23:42.906Z,0.40
2023-03-27T09:26:14.033Z,0.45
2023-03-27T09:28:50.730Z,0.20
2023-03-27T09:31:29.021Z,0.20
2023-03-27T09:33:57.010Z,0.30
2023-03-27T09:36:24.660Z,0.60
2023-03-27T09:38:58.558Z,0.30
2023-03-27T09:41:26.450Z,0.38
2023-03-27T09:43:53.610Z,0.40
2023-03-27T09:46:21.414Z,0.20
2023-03-27T09:48:54.239Z,0.30
2023-03-27T09:51:40.201Z,0.40
2023-03-27T09:54:07.455Z,0.47
2023-03-27T09:56:38.394Z,0.40
2023-03-27T09:59:09.438Z,0.40
2023-03-27T10:01:37.238Z,0.30
2023-03-27T10:04:14.409Z,0.30
2023-03-27T10:06:45.781Z,0.40
2023-03-27T10:09:26.446Z,0.40
2023-03-27T10:12:04.774Z,0.50
2023-03-27T10:14:34.594Z,0.35
2023-03-27T10:17:02.337Z,0.30
2023-03-27T10:19:35.450Z,0.40
2023-03-27T10:22:04.269Z,0.67
2023-03-27T10:24:33.108Z,0.40
2023-03-27T10:27:01.165Z,0.45
2023-03-27T10:29:30.087Z,0.40
2023-03-27T10:31:57.818Z,0.57
2023-03-27T10:34:44.467Z,0.60
2023-03-27T10:37:30.839Z,0.43
2023-03-27T10:39:58.327Z,0.40
2023-03-27T10:42:26.688Z,0.90
2023-03-27T10:44:56.210Z,0.50
2023-03-27T10:47:24.126Z,0.30
2023-03-27T10:49:56.668Z,0.30
2023-03-27T10:52:31.043Z,0.40
2023-03-27T10:55:17.078Z,0.30
2023-03-27T10:57:44.161Z,0.40
2023-03-27T11:00:19.655Z,0.35
2023-03-27T11:02:48.654Z,0.50
2023-03-27T11:05:26.951Z,0.37
2023-03-27T11:08:00.352Z,0.30
2023-03-27T11:10:29.891Z,0.30
2023-03-27T11:13:02.083Z,0.38
2023-03-27T11:15:42.222Z,0.30
2023-03-27T11:18:14.368Z,0.40
2023-03-27T11:20:44.266Z,0.30
2023-03-27T11:23:32.109Z,0.47
2023-03-27T11:26:00.063Z,0.45
2023-03-27T11:28:43.583Z,0.40
2023-03-27T11:31:25.698Z,0.40
2023-03-27T11:33:53.631Z,0.40
2023-03-27T11:36:20.713Z,0.70
2023-03-27T11:38:51.223Z,0.40
2023-03-27T11:41:18.352Z,0.57
2023-03-27T11:43:45.507Z,0.60
2023-03-27T11:46:27.951Z,5.25
2023-03-27T11:49:16.824Z,0.90
2023-03-27T11:51:54.997Z,0.63
2023-03-27T11:54:28.937Z,1.00
2023-03-27T11:56:57.955Z,0.50
2023-03-27T11:59:54.722Z,1.05
2023-03-27T12:02:46.398Z,0.90
2023-03-27T12:05:34.685Z,0.50
2023-03-27T12:08:18.232Z,0.35
2023-03-27T12:10:45.843Z,0.40
2023-03-27T12:13:19.120Z,0.40
2023-03-27T12:15:49.596Z,0.60
2023-03-27T12:18:19.712Z,0.70
2023-03-27T12:21:05.431Z,0.52
2023-03-27T12:23:39.669Z,0.60
2023-03-27T12:26:07.483Z,0.50
2023-03-27T12:29:01.134Z,0.40
2023-03-27T12:31:31.247Z,0.90
2023-03-27T12:34:16.667Z,0.52
2023-03-27T12:36:45.596Z,0.40
2023-03-27T12:39:13.598Z,0.77
2023-03-27T12:41:43.774Z,0.57
2023-03-27T12:44:11.249Z,1.08
2023-03-27T12:46:39.348Z,0.38
2023-03-27T12:49:07.526Z,0.30
2023-03-27T12:51:44.450Z,0.50
2023-03-27T12:54:24.430Z,0.40
2023-03-27T12:56:52.388Z,0.40
2023-03-27T12:59:20.682Z,0.43
2023-03-27T13:02:06.567Z,0.40
2023-03-27T13:04:49.096Z,0.43
2023-03-27T13:07:20.737Z,0.63
2023-03-27T13:09:48.016Z,0.40
2023-03-27T13:12:18.106Z,0.50
2023-03-27T13:14:52.544Z,0.50
2023-03-27T13:17:38.700Z,0.50
2023-03-27T13:20:24.780Z,0.40
2023-03-27T13:23:04.195Z,0.90
2023-03-27T13:25:32.409Z,0.80
2023-03-27T13:28:08.488Z,0.70
2023-03-27T13:30:41.920Z,0.60
2023-03-27T13:33:16.370Z,0.60
2023-03-27T13:36:02.550Z,0.47
2023-03-27T13:38:48.387Z,0.73
2023-03-27T13:41:34.352Z,0.77
2023-03-27T13:44:01.494Z,0.73
2023-03-27T13:46:29.184Z,0.90
2023-03-27T13:48:56.409Z,0.60
2023-03-27T13:51:26.549Z,0.55
2023-03-27T13:53:57.363Z,0.73
2023-03-27T13:56:43.438Z,0.60
2023-03-27T13:59:29.476Z,0.70
2023-03-27T14:02:04.750Z,0.80
2023-03-27T14:04:53.370Z,1.00
2023-03-27T14:07:26.638Z,0.70
2023-03-27T14:10:11.174Z,1.17
2023-03-27T14:12:56.679Z,0.70
2023-03-27T14:15:23.904Z,0.70
2023-03-27T14:18:11.334Z,0.50
2023-03-27T14:20:45.213Z,0.50
2023-03-27T14:23:25.645Z,0.70
2023-03-27T14:25:56.440Z,0.60
2023-03-27T14:28:31.556Z,0.82
2023-03-27T14:31:01.048Z,0.70
2023-03-27T14:33:28.535Z,0.55
2023-03-27T14:35:57.213Z,0.80
2023-03-27T14:38:24.852Z,5.95
2023-03-27T14:40:52.940Z,2.75
2023-03-27T14:43:21.156Z,6.07
2023-03-27T14:48:37.022Z,0.70
2023-03-27T14:51:06.488Z,1.70
2023-03-27T14:53:36.456Z,0.60
2023-03-27T14:56:11.547Z,1.42
2023-03-27T14:58:40.386Z,1.97
2023-03-27T15:01:08.269Z,0.60
2023-03-27T15:03:35.536Z,0.90
2023-03-27T15:06:06.475Z,0.73
2023-03-27T15:08:37.451Z,1.77
2023-03-27T15:11:06.755Z,3.60
2023-03-27T15:13:35.500Z,0.50
2023-03-27T15:16:03.071Z,3.27
2023-03-27T15:18:49.272Z,0.70
2023-03-27T15:21:19.835Z,0.50
2023-03-27T15:23:58.737Z,0.47
2023-03-27T15:26:26.854Z,0.80
2023-03-27T15:28:58.518Z,1.42
2023-03-27T15:31:25.730Z,1.20
2023-03-27T15:33:54.627Z,3.00
2023-03-27T15:36:27.731Z,0.95
2023-03-27T15:38:55.385Z,0.95
2023-03-27T15:41:28.510Z,1.00
2023-03-27T15:44:01.701Z,1.30
2023-03-27T15:46:33.300Z,2.33
2023-03-27T15:49:00.786Z,0.73
2023-03-27T15:51:31.012Z,1.17
2023-03-27T15:53:58.575Z,1.02
2023-03-27T15:56:36.769Z,2.58
2023-03-27T15:59:03.839Z,1.17
2023-03-27T16:01:37.536Z,2.47
2023-03-27T16:04:05.708Z,2.67
2023-03-27T16:06:37.487Z,1.70
2023-03-27T16:09:05.783Z,5.60
2023-03-27T16:11:33.686Z,3.03
2023-03-27T16:14:00.793Z,0.88
2023-03-27T16:16:32.735Z,2.10
2023-03-27T16:19:20.197Z,10.60
2023-03-27T16:21:56.936Z,1.38
2023-03-27T16:24:23.997Z,1.70
2023-03-27T16:26:52.632Z,1.10
2023-03-27T16:29:21.495Z,1.30
2023-03-27T16:31:48.679Z,5.55
2023-03-27T16:34:23.327Z,4.65
2023-03-27T16:36:50.761Z,0.65
2023-03-27T16:39:17.822Z,0.80
2023-03-27T16:41:44.887Z,1.03
2023-03-27T16:44:11.983Z,1.13
2023-03-27T16:46:39.130Z,0.50
2023-03-27T16:49:06.297Z,0.70
2023-03-27T16:51:33.351Z,0.50
2023-03-27T16:54:01.289Z,0.50
2023-03-27T16:56:28.351Z,0.60
2023-03-27T16:58:55.586Z,0.40
2023-03-27T17:01:24.284Z,0.70
2023-03-27T17:03:51.413Z,0.50
2023-03-27T17:06:19.291Z,0.73
2023-03-27T17:08:46.420Z,0.80
2023-03-27T17:11:13.668Z,0.40
2023-03-27T17:13:43.391Z,0.80
2023-03-27T17:16:10.708Z,0.30
2023-03-27T17:18:37.829Z,0.70
2023-03-27T17:21:04.983Z,0.70
2023-03-27T17:23:32.030Z,0.68
2023-03-27T17:26:02.368Z,0.63
2023-03-27T17:28:29.922Z,0.43
2023-03-27T17:31:04.695Z,0.57
2023-03-27T17:33:32.452Z,0.70
2023-03-27T17:35:59.701Z,0.70
2023-03-27T17:38:27.477Z,0.50
2023-03-27T17:40:54.575Z,0.90
2023-03-27T17:43:21.689Z,0.55
2023-03-27T17:45:49.499Z,0.85
2023-03-27T17:48:16.611Z,2.60
2023-03-27T17:50:43.758Z,0.70
2023-03-27T17:53:12.208Z,0.60
2023-03-27T17:55:39.838Z,1.23
2023-03-27T17:58:09.753Z,0.60
2023-03-27T18:00:37.659Z,2.15
2023-03-27T18:03:04.908Z,0.93
2023-03-27T18:05:35.588Z,2.10
2023-03-27T18:08:02.690Z,2.83
2023-03-27T18:10:29.754Z,3.92
2023-03-27T18:12:57.178Z,0.98
2023-03-27T18:15:24.272Z,1.63
2023-03-27T18:17:51.369Z,2.00
2023-03-27T18:20:18.516Z,1.60
2023-03-27T18:22:45.695Z,2.03
2023-03-27T18:25:12.782Z,11.93
2023-03-27T18:27:40.274Z,5.35
2023-03-27T18:30:12.228Z,3.47
2023-03-27T18:32:39.753Z,1.50
2023-03-27T18:35:07.292Z,0.95
2023-03-27T18:37:34.920Z,1.97
2023-03-27T18:40:02.004Z,2.22
2023-03-27T18:42:29.201Z,8.23
2023-03-27T18:44:56.293Z,10.50
2023-03-27T18:47:23.336Z,8.33
2023-03-27T18:49:50.413Z,17.05
2023-03-27T18:52:17.500Z,9.15
2023-03-27T18:54:44.561Z,7.15
2023-03-27T18:57:12.099Z,3.10
2023-03-27T18:59:39.229Z,5.68
2023-03-27T19:02:06.358Z,2.35
2023-03-27T19:04:33.459Z,3.90
2023-03-27T19:07:01.163Z,2.75
2023-03-27T19:09:38.718Z,2.42
2023-03-27T19:12:08.710Z,2.70
2023-03-27T19:14:36.537Z,1.00
2023-03-27T19:17:03.783Z,0.50
2023-03-27T19:19:32.149Z,0.60
2023-03-27T19:21:59.302Z,1.27
2023-03-27T19:24:26.425Z,0.95
2023-03-27T19:26:53.485Z,0.50
2023-03-27T19:29:20.658Z,0.43
2023-03-27T19:31:47.717Z,0.37
2023-03-27T19:34:14.922Z,0.60
2023-03-27T19:36:41.976Z,0.40
2023-03-27T19:39:09.257Z,0.50
2023-03-27T19:41:36.329Z,0.60
2023-03-27T19:44:03.968Z,0.45
2023-03-27T19:46:31.081Z,0.57
2023-03-27T19:48:58.157Z,0.30
2023-03-27T19:51:25.574Z,0.40
2023-03-27T19:53:52.679Z,0.55
2023-03-27T19:56:19.740Z,0.60
2023-03-27T19:58:46.816Z,0.45
2023-03-27T20:01:13.950Z,0.50
2023-03-27T20:03:41.285Z,0.70
2023-03-27T20:06:13.328Z,0.50
2023-03-27T20:08:41.988Z,0.63
2023-03-27T20:11:09.063Z,0.60
2023-03-27T20:13:48.886Z,0.80
2023-03-27T20:16:21.428Z,0.45
2023-03-27T20:18:55.131Z,0.20
2023-03-27T20:21:24.669Z,0.47
2023-03-27T20:23:55.394Z,0.50
2023-03-27T20:26:22.979Z,0.80
2023-03-27T20:28:50.509Z,0.60
2023-03-27T20:31:17.905Z,0.50
2023-03-27T20:33:45.157Z,0.55
2023-03-27T20:36:12.640Z,0.43
2023-03-27T20:38:39.790Z,0.57
2023-03-27T20:41:07.042Z,0.65
2023-03-27T20:43:38.470Z,0.70
2023-03-27T20:46:06.936Z,0.70
2023-03-27T20:48:53.645Z,0.50
2023-03-27T20:51:24.443Z,0.68
2023-03-27T20:53:55.494Z,0.60
2023-03-27T20:56:22.759Z,0.70
2023-03-27T20:58:49.903Z,0.52
2023-03-27T21:01:19.197Z,1.03
2023-03-27T21:03:49.374Z,2.85
2023-03-27T21:06:18.390Z,0.80
2023-03-27T21:08:45.498Z,0.35
2023-03-27T21:11:12.597Z,0.35
2023-03-27T21:13:39.668Z,0.47
2023-03-27T21:16:06.967Z,0.20
2023-03-27T21:18:34.355Z,0.40
2023-03-27T21:21:03.365Z,0.38
2023-03-27T21:23:30.581Z,0.30
2023-03-27T21:25:58.210Z,0.55
2023-03-27T21:28:25.620Z,0.50
2023-03-27T21:30:52.820Z,0.50
2023-03-27T21:33:19.876Z,0.63
2023-03-27T21:35:47.395Z,0.38
2023-03-27T21:38:15.404Z,0.40
2023-03-27T21:40:42.852Z,0.40
2023-03-27T21:43:09.917Z,0.50
2023-03-27T21:45:37.173Z,0.38
2023-03-27T21:48:04.483Z,0.50
2023-03-27T21:50:31.674Z,0.55
2023-03-27T21:52:58.764Z,0.43
2023-03-27T21:55:25.984Z,0.30
2023-03-27T21:57:53.075Z,0.40
2023-03-27T22:00:20.594Z,0.40
2023-03-27T22:02:47.891Z,0.30
2023-03-27T22:05:15.009Z,0.30
2023-03-27T22:07:42.183Z,0.60
2023-03-27T22:10:09.577Z,0.80
2023-03-27T22:12:36.978Z,0.30
2023-03-27T22:15:05.647Z,0.50
2023-03-27T22:17:32.745Z,0.50
2023-03-27T22:19:59.816Z,0.80
2023-03-27T22:22:26.912Z,0.40
2023-03-27T22:24:54.038Z,0.60
2023-03-27T22:27:21.101Z,0.63
2023-03-27T22:29:48.148Z,0.55
2023-03-27T22:32:15.247Z,0.50
2023-03-27T22:34:42.310Z,0.68
2023-03-27T22:37:09.393Z,0.47
2023-03-27T22:39:36.453Z,0.70
2023-03-27T22:42:03.565Z,0.40
2023-03-27T22:44:31.130Z,0.68
2023-03-27T22:46:59.166Z,0.57
2023-03-27T22:49:26.480Z,1.50
2023-03-27T22:51:53.554Z,0.55
2023-03-27T22:54:20.629Z,0.50
2023-03-27T22:56:47.781Z,0.40
2023-03-27T22:59:15.507Z,0.47
2023-03-27T23:01:42.647Z,0.43
2023-03-27T23:04:09.751Z,0.40
2023-03-27T23:06:36.822Z,0.50
2023-03-27T23:09:03.990Z,0.60
2023-03-27T23:11:31.260Z,1.10
2023-03-27T23:13:58.357Z,0.50
2023-03-27T23:16:25.515Z,0.25
2023-03-27T23:18:53.072Z,0.30
2023-03-27T23:21:20.425Z,1.30
2023-03-27T23:23:47.583Z,0.25
2023-03-27T23:26:14.710Z,0.30
2023-03-27T23:28:42.227Z,0.28
2023-03-27T23:31:11.574Z,0.30
2023-03-27T23:33:39.461Z,0.40
2023-03-27T23:36:07.850Z,0.60
2023-03-27T23:38:35.182Z,0.30
2023-03-27T23:41:02.332Z,0.60
2023-03-27T23:43:29.605Z,1.05
2023-03-27T23:45:59.222Z,0.68
2023-03-27T23:48:27.108Z,0.70
2023-03-27T23:50:54.234Z,0.80
2023-03-27T23:53:22.035Z,1.20
2023-03-27T23:55:49.320Z,1.20
2023-03-27T23:58:16.394Z,1.00
